Time;durP1;ratioP1;P1;durP2;ratioP2;P2;SDS_P1;SDS_P2;PMS_P1;PMS_P2;Temp;Humidity;BMP_temperature;BMP_pressure;BME280_temperature;BME280_humidity;BME280_pressure;Samples;Min_cycle;Max_cycle;Signal;HPM_P1;HPM_P2
2021/04/10 00:00:33;;;;;;;9.70;8.43;;;7.70;1.00;;;;;;5070143;28;20180;-59
2021/04/10 00:02:58;;;;;;;9.57;8.13;;;7.70;1.00;;;;;;5071361;28;20662;-58
2021/04/10 00:05:25;;;;;;;8.83;7.93;;;7.70;1.00;;;;;;5073007;28;20195;-60
2021/04/10 00:07:51;;;;;;;10.40;9.17;;;7.60;1.00;;;;;;5070922;28;20183;-58
2021/04/10 00:10:17;;;;;;;10.17;8.53;;;7.60;1.00;;;;;;5070601;28;20465;-59
2021/04/10 00:12:43;;;;;;;11.23;8.90;;;7.60;1.00;;;;;;5069645;28;20187;-59
2021/04/10 00:15:12;;;;;;;11.47;9.10;;;7.60;1.00;;;;;;5070973;28;20768;-59
2021/04/10 00:17:38;;;;;;;10.60;8.00;;;7.60;1.00;;;;;;5069112;28;20446;-60
2021/04/10 00:20:08;;;;;;;13.07;8.40;;;7.50;1.00;;;;;;5070846;28;21047;-57
2021/04/10 00:22:34;;;;;;;11.73;8.10;;;7.50;1.00;;;;;;5070658;28;20164;-58
2021/04/10 00:24:59;;;;;;;8.83;7.60;;;7.50;1.00;;;;;;5066693;28;20441;-59
2021/04/10 00:27:25;;;;;;;10.10;8.33;;;7.40;1.00;;;;;;5068357;28;20341;-59
2021/04/10 00:29:50;;;;;;;10.17;7.70;;;7.40;1.00;;;;;;5070330;28;20210;-58
2021/04/10 00:32:16;;;;;;;10.83;9.07;;;7.40;1.00;;;;;;5067538;28;20281;-59
2021/04/10 00:34:41;;;;;;;10.43;8.77;;;7.40;1.00;;;;;;5069295;28;20652;-57
2021/04/10 00:37:07;;;;;;;11.30;7.80;;;7.40;1.00;;;;;;5069976;28;20187;-57
2021/04/10 00:39:32;;;;;;;9.90;8.00;;;7.40;1.00;;;;;;5068402;28;20194;-58
2021/04/10 00:41:58;;;;;;;9.27;7.23;;;7.40;1.00;;;;;;5065372;28;20191;-58
2021/04/10 00:44:23;;;;;;;12.17;8.33;;;7.40;1.00;;;;;;5069544;28;20192;-57
2021/04/10 00:46:49;;;;;;;9.20;7.80;;;7.40;1.00;;;;;;5069954;28;20190;-57
2021/04/10 00:49:15;;;;;;;9.13;7.20;;;7.30;1.00;;;;;;5068523;28;20184;-59
2021/04/10 00:51:40;;;;;;;8.33;7.47;;;7.20;1.00;;;;;;5070113;28;20229;-57
2021/04/10 00:54:06;;;;;;;9.10;7.87;;;7.20;1.00;;;;;;5070084;28;20179;-59
2021/04/10 00:56:32;;;;;;;9.10;6.50;;;7.20;1.00;;;;;;5064334;28;20174;-59
2021/04/10 00:58:58;;;;;;;8.37;6.80;;;7.20;1.00;;;;;;5070297;28;20429;-59
2021/04/10 01:01:24;;;;;;;9.77;7.30;;;7.20;1.00;;;;;;5068718;28;20190;-57
2021/04/10 01:03:50;;;;;;;9.70;7.53;;;7.10;1.00;;;;;;5069357;28;20213;-57
2021/04/10 01:06:16;;;;;;;7.90;7.10;;;7.10;1.00;;;;;;5069212;28;20446;-58
2021/04/10 01:08:42;;;;;;;7.83;6.90;;;7.10;1.00;;;;;;5067230;28;20449;-59
2021/04/10 01:11:27;;;;;;;6.83;6.20;;;7.20;1.00;;;;;;5067896;28;20510;-58
2021/04/10 01:14:13;;;;;;;8.50;7.40;;;7.20;1.00;;;;;;5065657;28;20278;-58
2021/04/10 01:17:02;;;;;;;12.40;7.40;;;7.20;1.00;;;;;;5068588;28;20790;-58
2021/04/10 01:20:01;;;;;;;10.70;6.80;;;7.20;1.00;;;;;;5070066;28;20940;-58
2021/04/10 01:22:42;;;;;;;8.37;7.37;;;7.30;1.00;;;;;;5069624;28;20448;-59
2021/04/10 01:25:14;;;;;;;11.13;7.70;;;7.30;1.00;;;;;;5069976;28;20853;-58
2021/04/10 01:27:44;;;;;;;8.33;7.00;;;7.30;1.00;;;;;;5066067;28;20516;-58
2021/04/10 01:30:14;;;;;;;8.90;6.83;;;7.30;1.00;;;;;;5068691;28;20957;-58
2021/04/10 01:32:57;;;;;;;11.90;7.13;;;7.30;1.00;;;;;;5070136;28;20426;-58
2021/04/10 01:35:25;;;;;;;6.83;6.13;;;7.20;1.00;;;;;;5066124;28;20449;-58
2021/04/10 01:37:52;;;;;;;7.63;6.93;;;7.30;1.00;;;;;;5065648;28;20459;-57
2021/04/10 01:40:19;;;;;;;10.60;8.10;;;7.20;1.00;;;;;;5064160;28;20442;-59
2021/04/10 01:42:47;;;;;;;9.63;7.37;;;7.20;1.00;;;;;;5063363;28;20450;-57
2021/04/10 01:45:14;;;;;;;8.87;7.23;;;7.10;1.00;;;;;;5068801;28;20477;-59
2021/04/10 01:47:42;;;;;;;12.33;7.50;;;7.10;1.00;;;;;;5069032;28;20430;-59
2021/04/10 01:50:07;;;;;;;9.27;7.30;;;7.10;1.00;;;;;;5069403;28;20492;-59
2021/04/10 01:52:33;;;;;;;9.87;6.80;;;7.10;1.00;;;;;;5067996;28;20441;-58
2021/04/10 01:55:00;;;;;;;7.83;6.30;;;7.10;1.00;;;;;;5062159;28;20690;-57
2021/04/10 01:57:28;;;;;;;7.43;6.70;;;7.00;1.00;;;;;;5066554;28;20286;-59
2021/04/10 01:59:54;;;;;;;11.30;6.93;;;7.10;1.00;;;;;;5067724;28;20527;-59
2021/04/10 02:02:22;;;;;;;9.23;6.90;;;7.20;1.00;;;;;;5068807;28;20438;-58
2021/04/10 02:04:48;;;;;;;8.50;6.93;;;7.10;1.00;;;;;;5071000;28;20449;-57
2021/04/10 02:07:15;;;;;;;13.60;6.97;;;7.10;1.00;;;;;;5071021;28;20891;-58
2021/04/10 02:09:45;;;;;;;9.53;6.40;;;7.10;1.00;;;;;;5071619;28;20445;-57
2021/04/10 02:12:11;;;;;;;7.57;6.80;;;7.10;1.00;;;;;;5071308;28;20504;-59
2021/04/10 02:14:38;;;;;;;9.90;7.03;;;7.20;1.00;;;;;;5071640;28;20507;-58
2021/04/10 02:17:06;;;;;;;12.17;7.73;;;7.20;1.00;;;;;;5072399;28;20772;-59
2021/04/10 02:19:31;;;;;;;9.03;7.43;;;7.10;1.00;;;;;;5073229;28;20445;-59
2021/04/10 02:21:58;;;;;;;9.07;7.40;;;7.10;1.00;;;;;;5073189;28;20490;-58
2021/04/10 02:24:23;;;;;;;7.80;6.87;;;7.00;1.00;;;;;;5071152;28;20267;-58
2021/04/10 02:26:49;;;;;;;10.10;7.73;;;7.00;1.00;;;;;;5071768;28;21069;-59
2021/04/10 02:29:14;;;;;;;7.33;6.60;;;7.00;1.00;;;;;;5072043;28;20673;-58
2021/04/10 02:31:53;;;;;;;8.73;7.47;;;7.00;1.00;;;;;;5072537;28;20694;-58
2021/04/10 02:34:24;;;;;;;8.00;7.20;;;7.20;1.00;;;;;;5069508;28;20275;-58
2021/04/10 02:36:54;;;;;;;8.07;7.00;;;7.20;1.00;;;;;;5071888;28;20441;-57
2021/04/10 02:39:22;;;;;;;7.83;7.03;;;7.30;1.00;;;;;;5072229;28;20445;-57
2021/04/10 02:41:51;;;;;;;7.93;6.57;;;7.40;1.00;;;;;;5071937;28;20527;-58
2021/04/10 02:44:23;;;;;;;9.43;6.70;;;7.40;1.00;;;;;;5072508;28;20450;-58
2021/04/10 02:46:51;;;;;;;8.10;7.30;;;7.50;1.00;;;;;;5072334;28;20453;-58
2021/04/10 02:49:23;;;;;;;11.63;7.10;;;7.40;1.00;;;;;;5071175;28;20540;-59
2021/04/10 02:51:54;;;;;;;7.93;6.83;;;7.50;1.00;;;;;;5072525;28;20469;-57
2021/04/10 02:54:23;;;;;;;7.97;7.17;;;7.60;1.00;;;;;;5072518;28;20445;-58
2021/04/10 02:57:20;;;;;;;11.33;8.10;;;7.60;1.00;;;;;;5069624;28;20450;-58
2021/04/10 02:59:49;;;;;;;9.63;7.33;;;7.60;1.00;;;;;;5065668;28;20792;-58
2021/04/10 03:02:16;;;;;;;10.37;8.90;;;7.60;1.00;;;;;;5070277;28;20488;-60
2021/04/10 03:04:46;;;;;;;10.30;7.70;;;7.60;1.00;;;;;;5068248;28;20536;-58
2021/04/10 03:07:13;;;;;;;11.43;8.07;;;7.80;1.00;;;;;;5071992;28;20449;-58
2021/04/10 03:09:44;;;;;;;16.10;10.23;;;7.70;1.00;;;;;;5071970;28;20444;-58
2021/04/10 03:12:13;;;;;;;11.00;7.73;;;7.70;1.00;;;;;;5070947;28;20534;-58
2021/04/10 03:14:40;;;;;;;10.50;7.70;;;7.80;1.00;;;;;;5072138;28;20452;-57
2021/04/10 03:17:08;;;;;;;10.77;6.80;;;7.80;1.00;;;;;;5070420;28;20450;-59
2021/04/10 03:19:36;;;;;;;9.00;7.33;;;7.80;1.00;;;;;;5071312;28;20484;-58
2021/04/10 03:22:02;;;;;;;9.83;7.70;;;7.80;1.00;;;;;;5071791;28;20450;-58
2021/04/10 03:24:28;;;;;;;9.17;8.20;;;7.80;1.00;;;;;;5068398;28;20498;-58
2021/04/10 03:26:55;;;;;;;19.30;9.00;;;7.80;1.00;;;;;;5063702;28;20694;-58
2021/04/10 03:29:20;;;;;;;10.50;8.13;;;7.80;1.00;;;;;;5070819;28;20623;-58
2021/04/10 03:31:47;;;;;;;10.23;7.53;;;7.90;1.00;;;;;;5069122;28;20474;-57
2021/04/10 03:34:13;;;;;;;10.73;8.63;;;7.90;1.00;;;;;;5069727;28;20188;-58
2021/04/10 03:36:40;;;;;;;12.87;8.90;;;7.90;1.00;;;;;;5071757;28;20524;-59
2021/04/10 03:39:05;;;;;;;13.67;8.27;;;7.90;1.00;;;;;;5070476;28;20496;-58
2021/04/10 03:41:31;;;;;;;10.57;8.30;;;7.90;1.00;;;;;;5069313;28;20458;-58
2021/04/10 03:43:57;;;;;;;9.97;8.73;;;8.00;1.00;;;;;;5070923;28;20224;-59
2021/04/10 03:46:22;;;;;;;10.47;8.83;;;8.00;1.00;;;;;;5052554;28;20694;-58
2021/04/10 03:48:48;;;;;;;12.87;8.57;;;8.00;1.00;;;;;;5071306;28;20573;-58
2021/04/10 03:51:13;;;;;;;12.70;9.80;;;8.00;1.00;;;;;;5071450;28;20212;-58
2021/04/10 03:53:39;;;;;;;11.70;10.00;;;8.10;1.00;;;;;;5068878;28;20180;-58
2021/04/10 03:56:05;;;;;;;11.53;8.70;;;8.20;1.00;;;;;;5069259;28;20634;-58
2021/04/10 03:58:31;;;;;;;13.53;10.03;;;8.10;1.00;;;;;;5071407;28;20599;-59
2021/04/10 04:00:56;;;;;;;12.23;9.60;;;8.20;1.00;;;;;;5070263;28;20441;-59
2021/04/10 04:03:22;;;;;;;9.57;8.43;;;8.30;1.00;;;;;;5071384;28;20194;-59
2021/04/10 04:05:47;;;;;;;10.23;8.63;;;8.30;1.00;;;;;;5071564;28;20200;-58
2021/04/10 04:08:13;;;;;;;9.30;8.30;;;8.40;1.00;;;;;;5070131;28;20510;-59
2021/04/10 04:10:39;;;;;;;12.20;8.77;;;;;;;;;;5070199;28;20216;-58
2021/04/10 04:13:04;;;;;;;10.77;9.00;;;8.40;1.00;;;;;;5070286;28;20200;-58
2021/04/10 04:15:30;;;;;;;12.77;9.10;;;8.40;1.00;;;;;;5068789;28;20484;-58
2021/04/10 04:17:55;;;;;;;11.83;9.93;;;8.40;1.00;;;;;;5065264;28;20189;-58
2021/04/10 04:20:21;;;;;;;12.67;9.10;;;8.40;1.00;;;;;;5070928;28;20214;-58
2021/04/10 04:22:46;;;;;;;10.83;8.70;;;8.30;1.00;;;;;;5068347;28;20774;-58
2021/04/10 04:25:12;;;;;;;11.10;9.10;;;8.40;1.00;;;;;;5067614;28;20188;-59
2021/04/10 04:27:38;;;;;;;9.73;7.87;;;8.40;1.00;;;;;;5067964;28;20302;-58
2021/04/10 04:30:06;;;;;;;10.03;8.50;;;8.40;1.00;;;;;;5088612;28;20210;-59
2021/04/10 04:32:31;;;;;;;12.57;8.43;;;8.50;1.00;;;;;;5090812;28;20209;-58
2021/04/10 04:34:57;;;;;;;9.60;7.57;;;8.40;1.00;;;;;;5090997;28;20433;-58
2021/04/10 04:37:22;;;;;;;10.90;8.40;;;10.90;1.00;;;;;;5069968;28;20210;-59
2021/04/10 04:39:48;;;;;;;11.33;8.43;;;8.60;1.00;;;;;;5070089;28;20180;-58
2021/04/10 04:42:13;;;;;;;10.07;8.87;;;8.70;1.00;;;;;;5067659;28;20187;-58
2021/04/10 04:44:39;;;;;;;12.07;9.20;;;8.70;1.00;;;;;;5070548;28;20184;-58
2021/04/10 04:47:05;;;;;;;12.30;8.40;;;8.70;1.00;;;;;;5069463;28;20551;-57
2021/04/10 04:49:30;;;;;;;11.03;8.67;;;8.90;1.00;;;;;;5069796;28;20188;-58
2021/04/10 04:51:56;;;;;;;9.53;8.10;;;8.70;1.00;;;;;;5070091;28;20219;-58
2021/04/10 04:54:22;;;;;;;12.23;8.83;;;8.60;1.00;;;;;;5067479;28;20266;-58
2021/04/10 04:56:48;;;;;;;11.60;8.17;;;8.60;1.00;;;;;;5066073;28;20450;-59
2021/04/10 04:59:14;;;;;;;11.10;8.20;;;8.70;1.00;;;;;;5069217;28;21009;-58
2021/04/10 05:01:39;;;;;;;12.77;9.60;;;8.70;1.00;;;;;;5069440;28;20441;-59
2021/04/10 05:04:05;;;;;;;33.10;25.60;;;8.90;1.00;;;;;;5068496;28;20454;-58
2021/04/10 05:06:31;;;;;;;17.00;15.10;;;8.90;1.00;;;;;;5069832;28;20193;-58
2021/04/10 05:08:56;;;;;;;9.80;7.80;;;8.90;1.00;;;;;;5067203;28;20213;-58
2021/04/10 05:11:22;;;;;;;10.17;8.50;;;8.80;1.00;;;;;;5070052;28;20593;-59
2021/04/10 05:13:48;;;;;;;9.80;8.50;;;8.80;1.00;;;;;;5066290;28;20274;-58
2021/04/10 05:16:13;;;;;;;10.23;8.03;;;8.80;1.00;;;;;;5068957;28;20544;-59
2021/04/10 05:18:39;;;;;;;10.83;8.00;;;8.90;1.00;;;;;;5070252;28;20281;-59
2021/04/10 05:21:04;;;;;;;9.53;7.63;;;8.90;1.00;;;;;;5070122;28;20653;-58
2021/04/10 05:23:30;;;;;;;11.50;8.53;;;9.10;1.00;;;;;;5066692;28;20223;-58
2021/04/10 05:25:55;;;;;;;11.70;8.27;;;9.20;1.00;;;;;;5069424;28;20207;-58
2021/04/10 05:28:21;;;;;;;12.27;9.20;;;9.10;1.00;;;;;;5069901;28;20630;-58
2021/04/10 05:30:47;;;;;;;11.47;8.57;;;9.10;1.00;;;;;;5065489;28;20207;-59
2021/04/10 05:33:13;;;;;;;10.50;8.97;;;9.10;1.00;;;;;;5070045;28;20478;-58
2021/04/10 05:35:38;;;;;;;12.57;9.43;;;9.20;1.00;;;;;;5069987;28;20430;-58
2021/04/10 05:38:04;;;;;;;12.70;8.80;;;9.10;1.00;;;;;;5068553;28;20434;-57
2021/04/10 05:40:30;;;;;;;12.07;9.33;;;9.20;1.00;;;;;;5073735;28;20537;-59
2021/04/10 05:42:56;;;;;;;14.30;11.00;;;9.30;1.00;;;;;;5072036;28;20189;-59
2021/04/10 05:45:21;;;;;;;12.37;8.40;;;9.30;1.00;;;;;;5078781;28;20228;-57
2021/04/10 05:47:47;;;;;;;11.50;9.70;;;9.30;1.00;;;;;;5084017;28;20187;-58
2021/04/10 05:50:13;;;;;;;11.10;8.90;;;9.20;1.00;;;;;;5072907;28;20191;-57
2021/04/10 05:52:39;;;;;;;12.87;9.90;;;9.30;1.00;;;;;;5072943;28;20213;-58
2021/04/10 05:55:05;;;;;;;10.10;8.93;;;9.30;1.00;;;;;;5072393;28;20679;-59
2021/04/10 05:57:31;;;;;;;13.93;9.90;;;9.50;1.00;;;;;;5072325;28;20418;-58
2021/04/10 05:59:57;;;;;;;11.23;9.30;;;9.50;1.00;;;;;;5072730;28;20443;-59
2021/04/10 06:02:22;;;;;;;10.70;8.53;;;9.50;1.00;;;;;;5073146;28;20449;-59
2021/04/10 06:04:48;;;;;;;11.50;8.90;;;9.60;1.00;;;;;;5071974;28;20189;-60
2021/04/10 06:07:14;;;;;;;16.37;9.60;;;9.70;1.00;;;;;;5073457;28;20878;-58
2021/04/10 06:09:39;;;;;;;10.40;9.20;;;9.70;1.00;;;;;;5067607;28;20240;-58
2021/04/10 06:12:05;;;;;;;11.27;8.60;;;9.30;1.00;;;;;;5083655;28;20212;-57
2021/04/10 06:14:31;;;;;;;12.20;9.90;;;9.30;1.00;;;;;;5070667;28;20187;-58
2021/04/10 06:16:56;;;;;;;11.30;9.50;;;9.00;1.00;;;;;;5079166;28;20454;-58
2021/04/10 06:19:22;;;;;;;10.63;8.70;;;9.00;1.00;;;;;;5071724;28;20211;-59
2021/04/10 06:21:48;;;;;;;15.17;9.40;;;8.90;1.00;;;;;;5073690;28;20205;-58
2021/04/10 06:24:15;;;;;;;12.23;9.40;;;8.90;1.00;;;;;;5070663;28;20665;-58
2021/04/10 06:26:41;;;;;;;15.47;9.30;;;9.10;1.00;;;;;;5072569;28;20255;-60
2021/04/10 06:29:07;;;;;;;13.73;9.50;;;9.20;1.00;;;;;;5073345;28;20439;-59
2021/04/10 06:31:33;;;;;;;13.80;8.70;;;9.40;1.00;;;;;;5072575;28;20461;-58
2021/04/10 06:33:59;;;;;;;10.77;9.53;;;9.50;1.00;;;;;;5071114;28;20518;-58
2021/04/10 06:36:25;;;;;;;10.63;8.77;;;9.60;1.00;;;;;;5072914;28;20192;-58
2021/04/10 06:38:51;;;;;;;10.27;8.47;;;9.70;1.00;;;;;;5069741;28;20225;-58
2021/04/10 06:41:17;;;;;;;16.47;10.47;;;9.70;1.00;;;;;;5069090;28;20461;-58
2021/04/10 06:43:43;;;;;;;9.73;8.73;;;9.70;1.00;;;;;;5070568;28;20189;-60
2021/04/10 06:46:10;;;;;;;10.13;8.50;;;9.60;1.00;;;;;;5072694;28;21015;-58
2021/04/10 06:48:39;;;;;;;12.20;9.90;;;9.60;1.00;;;;;;5072010;28;20950;-58
2021/04/10 06:51:06;;;;;;;14.80;9.53;;;9.60;1.00;;;;;;5072473;28;20506;-59
2021/04/10 06:53:46;;;;;;;12.90;8.60;;;9.70;1.00;;;;;;5071749;28;20442;-59
2021/04/10 06:56:39;;;;;;;9.43;8.37;;;9.70;1.00;;;;;;5071215;28;20443;-58
2021/04/10 06:59:20;;;;;;;11.27;8.13;;;9.90;1.00;;;;;;5061493;28;20456;-59
2021/04/10 07:01:46;;;;;;;12.80;9.00;;;9.90;1.00;;;;;;5072181;28;20796;-58
2021/04/10 07:04:12;;;;;;;12.47;8.60;;;9.80;1.00;;;;;;5071752;28;20466;-58
2021/04/10 07:06:38;;;;;;;12.60;9.50;;;10.00;1.00;;;;;;5072137;28;20442;-61
2021/04/10 07:09:04;;;;;;;14.00;9.20;;;10.10;1.00;;;;;;5072278;28;20224;-59
2021/04/10 07:11:30;;;;;;;12.60;7.70;;;10.00;1.00;;;;;;5071189;28;20979;-60
2021/04/10 07:13:57;;;;;;;13.43;8.00;;;10.00;1.00;;;;;;5071377;28;20195;-60
2021/04/10 07:16:23;;;;;;;12.90;9.00;;;10.00;1.00;;;;;;5072257;28;20435;-59
2021/04/10 07:18:49;;;;;;;10.83;8.60;;;10.00;1.00;;;;;;5071985;28;20990;-55
2021/04/10 07:21:18;;;;;;;8.80;7.90;;;9.90;1.00;;;;;;5072249;28;20435;-58
2021/04/10 07:23:47;;;;;;;11.40;8.20;;;9.90;1.00;;;;;;5071870;28;20188;-61
2021/04/10 07:26:13;;;;;;;9.67;7.90;;;10.40;1.00;;;;;;5071831;28;20471;-58
2021/04/10 07:28:38;;;;;;;9.00;8.03;;;9.80;1.00;;;;;;5069277;28;20468;-61
2021/04/10 07:31:15;;;;;;;11.67;9.00;;;9.70;1.00;;;;;;5070271;28;20602;-58
2021/04/10 07:33:56;;;;;;;12.00;8.90;;;9.80;1.00;;;;;;5069199;28;20404;-59
2021/04/10 07:36:22;;;;;;;9.10;8.20;;;9.80;1.00;;;;;;5070613;28;20442;-60
2021/04/10 07:38:56;;;;;;;12.83;9.43;;;9.80;1.00;;;;;;5071821;28;20441;-60
2021/04/10 07:41:22;;;;;;;11.03;8.17;;;9.80;1.00;;;;;;5070649;28;20183;-61
2021/04/10 07:43:48;;;;;;;10.00;8.60;;;9.90;1.00;;;;;;5071212;28;20803;-60
2021/04/10 07:46:22;;;;;;;13.73;10.47;;;9.90;1.00;;;;;;5071250;28;20176;-59
2021/04/10 07:49:08;;;;;;;10.20;8.37;;;9.90;1.00;;;;;;5071286;28;20187;-59
2021/04/10 07:51:38;;;;;;;15.80;9.13;;;9.90;1.00;;;;;;5070358;28;20467;-59
2021/04/10 07:54:23;;;;;;;12.67;10.67;;;10.00;1.00;;;;;;5069393;28;20860;-59
2021/04/10 07:56:54;;;;;;;12.20;8.57;;;10.30;1.00;;;;;;5069786;28;20440;-59
2021/04/10 07:59:20;;;;;;;12.40;9.27;;;10.50;1.00;;;;;;5071112;28;20431;-59
2021/04/10 08:01:45;;;;;;;10.10;9.00;;;10.50;1.00;;;;;;5076855;28;20824;-59
2021/04/10 08:04:15;;;;;;;9.40;8.50;;;10.70;1.00;;;;;;5083635;28;20807;-60
2021/04/10 08:06:54;;;;;;;10.20;9.20;;;10.70;1.00;;;;;;5070636;28;20175;-60
2021/04/10 08:09:27;;;;;;;11.57;8.77;;;10.80;1.00;;;;;;5070547;28;20447;-59
2021/04/10 08:11:53;;;;;;;13.33;9.73;;;10.80;1.00;;;;;;5070951;28;20998;-59
2021/04/10 08:14:19;;;;;;;12.10;9.07;;;10.70;1.00;;;;;;5070891;28;20432;-58
2021/04/10 08:16:52;;;;;;;10.40;9.30;;;10.60;1.00;;;;;;5075081;28;20184;-60
2021/04/10 08:19:27;;;;;;;11.30;9.80;;;10.70;1.00;;;;;;5077974;28;20196;-59
2021/04/10 08:21:53;;;;;;;11.10;9.77;;;10.90;1.00;;;;;;5052255;28;20446;-60
2021/04/10 08:24:21;;;;;;;11.57;9.03;;;11.00;1.00;;;;;;5070556;28;21696;-60
2021/04/10 08:27:06;;;;;;;11.43;9.00;;;11.10;1.00;;;;;;5071728;28;20396;-59
2021/04/10 08:29:32;;;;;;;10.43;9.37;;;10.90;1.00;;;;;;5067768;28;20564;-58
2021/04/10 08:31:59;;;;;;;10.80;8.83;;;10.90;1.00;;;;;;5089708;28;20959;-62
2021/04/10 08:34:26;;;;;;;11.13;9.70;;;10.70;1.00;;;;;;5072835;28;20548;-61
2021/04/10 08:36:54;;;;;;;12.43;10.07;;;10.80;1.00;;;;;;5070795;28;20433;-58
2021/04/10 08:39:24;;;;;;;10.30;9.20;;;10.90;1.00;;;;;;5078890;28;20457;-60
2021/04/10 08:41:55;;;;;;;12.03;10.53;;;10.90;1.00;;;;;;5068986;28;20558;-59
2021/04/10 08:44:24;;;;;;;13.57;10.20;;;10.90;1.00;;;;;;5070513;28;20473;-59
2021/04/10 08:46:51;;;;;;;11.30;9.40;;;11.10;1.00;;;;;;5070406;28;20787;-59
2021/04/10 08:49:18;;;;;;;15.03;9.90;;;11.20;1.00;;;;;;5068747;28;20543;-59
2021/04/10 08:51:46;;;;;;;11.57;9.60;;;11.30;1.00;;;;;;5066335;28;20518;-60
2021/04/10 08:54:12;;;;;;;11.57;10.43;;;11.30;1.00;;;;;;5070222;28;20437;-60
2021/04/10 08:56:40;;;;;;;15.20;10.70;;;11.50;1.00;;;;;;5069946;28;20447;-58
2021/04/10 08:59:11;;;;;;;13.13;11.70;;;11.70;1.00;;;;;;5069766;28;20486;-60
2021/04/10 09:01:37;;;;;;;14.33;11.27;;;11.70;1.00;;;;;;5070122;28;20523;-60
2021/04/10 09:04:03;;;;;;;11.67;10.20;;;11.90;1.00;;;;;;5069962;28;20455;-60
2021/04/10 09:06:28;;;;;;;11.70;10.40;;;12.00;1.00;;;;;;5069948;28;20439;-59
2021/04/10 09:08:54;;;;;;;12.37;9.50;;;;;;;;;;5069672;28;20194;-60
2021/04/10 09:11:21;;;;;;;11.37;10.20;;;12.10;1.00;;;;;;5081442;28;20260;-59
2021/04/10 09:13:49;;;;;;;13.40;11.20;;;12.50;1.00;;;;;;5069620;28;20551;-60
2021/04/10 09:16:26;;;;;;;12.63;10.30;;;13.10;1.00;;;;;;5068801;28;20478;-61
2021/04/10 09:18:52;;;;;;;13.40;9.97;;;13.20;1.00;;;;;;5068419;28;20452;-60
2021/04/10 09:21:45;;;;;;;9.97;8.97;;;13.40;1.00;;;;;;5070382;28;20445;-60
2021/04/10 09:24:18;;;;;;;11.23;10.03;;;13.10;1.00;;;;;;5061920;28;20490;-59
2021/04/10 09:26:54;;;;;;;10.97;9.77;;;13.20;1.00;;;;;;5068785;28;20481;-60
2021/04/10 09:29:20;;;;;;;13.30;10.50;;;13.80;1.00;;;;;;5069507;28;20444;-59
2021/04/10 09:31:49;;;;;;;11.10;9.73;;;13.50;1.00;;;;;;5068792;28;20819;-61
2021/04/10 09:34:42;;;;;;;11.07;9.90;;;13.70;1.00;;;;;;5069633;28;20544;-59
2021/04/10 09:37:08;;;;;;;13.97;10.57;;;14.50;1.00;;;;;;5069266;28;20437;-60
2021/04/10 09:39:55;;;;;;;12.23;10.70;;;14.40;1.00;;;;;;5069901;28;20432;-59
2021/04/10 09:42:39;;;;;;;14.47;10.27;;;14.70;1.00;;;;;;5070060;28;20436;-61
2021/04/10 09:45:23;;;;;;;11.10;10.00;;;14.50;1.00;;;;;;5069638;28;20499;-61
2021/04/10 09:47:59;;;;;;;13.03;10.80;;;14.40;1.00;;;;;;5067940;28;20791;-59
2021/04/10 09:50:37;;;;;;;11.17;10.13;;;14.20;1.00;;;;;;5069608;28;20425;-61
2021/04/10 09:53:06;;;;;;;12.13;10.87;;;14.10;1.00;;;;;;5069617;28;20444;-60
2021/04/10 09:55:36;;;;;;;10.37;9.20;;;14.30;1.00;;;;;;5069016;28;20437;-59
2021/04/10 09:58:09;;;;;;;13.57;9.90;;;14.90;1.00;;;;;;5069420;28;20440;-59
2021/04/10 10:00:49;;;;;;;11.40;10.30;;;14.90;1.00;;;;;;5068018;28;20495;-57
2021/04/10 10:03:17;;;;;;;10.27;9.33;;;15.20;1.00;;;;;;5069438;28;20942;-59
2021/04/10 10:05:51;;;;;;;11.20;10.10;;;15.30;1.00;;;;;;5079625;28;20437;-61
2021/04/10 10:08:28;;;;;;;11.37;10.07;;;15.50;1.00;;;;;;5069991;28;20525;-60
2021/04/10 10:10:55;;;;;;;12.63;10.00;;;15.40;1.00;;;;;;5079864;28;20463;-57
2021/04/10 10:13:29;;;;;;;13.03;11.27;;;14.90;1.00;;;;;;5075342;28;20462;-60
2021/04/10 10:15:55;;;;;;;12.33;11.10;;;14.50;1.00;;;;;;5083581;28;20441;-59
2021/04/10 10:18:28;;;;;;;13.70;10.53;;;14.20;1.00;;;;;;5068985;28;20504;-58
2021/04/10 10:21:03;;;;;;;16.10;11.17;;;14.00;1.00;;;;;;5085487;28;20494;-60
2021/04/10 10:23:32;;;;;;;12.10;10.90;;;13.90;1.00;;;;;;5089777;28;20544;-60
2021/04/10 10:26:20;;;;;;;12.80;11.30;;;13.60;1.00;;;;;;5088954;28;20464;-59
2021/04/10 10:29:01;;;;;;;12.17;10.87;;;13.60;1.00;;;;;;5072861;28;20437;-58
2021/04/10 10:31:39;;;;;;;13.20;11.27;;;13.70;1.00;;;;;;5071794;28;20566;-58
2021/04/10 10:34:15;;;;;;;12.57;11.13;;;13.60;1.00;;;;;;5090180;28;20440;-57
2021/04/10 10:36:42;;;;;;;11.30;10.10;;;13.70;1.00;;;;;;5074592;28;20497;-58
2021/04/10 10:39:24;;;;;;;11.63;10.30;;;14.00;1.00;;;;;;5072749;28;20429;-60
2021/04/10 10:41:50;;;;;;;11.60;10.40;;;14.50;1.00;;;;;;5072434;28;20861;-65
2021/04/10 10:44:18;;;;;;;10.57;9.53;;;15.00;1.00;;;;;;5072296;28;20453;-63
2021/04/10 10:46:44;;;;;;;11.47;10.37;;;15.40;1.00;;;;;;5072566;28;20632;-65
2021/04/10 10:49:13;;;;;;;12.23;10.50;;;16.10;1.00;;;;;;5072744;28;20429;-59
2021/04/10 10:51:41;;;;;;;11.47;10.20;;;16.50;1.00;;;;;;5072823;28;20195;-61
2021/04/10 10:54:07;;;;;;;13.50;10.47;;;17.00;1.00;;;;;;5072904;28;20499;-62
2021/04/10 10:56:34;;;;;;;11.40;10.20;;;17.30;1.00;;;;;;5074682;28;20437;-60
2021/04/10 10:59:05;;;;;;;13.13;11.73;;;16.80;1.00;;;;;;5092667;28;20435;-59
2021/04/10 11:01:38;;;;;;;12.00;10.73;;;15.80;1.00;;;;;;5084353;28;20471;-59
2021/04/10 11:04:08;;;;;;;11.73;10.10;;;15.20;1.00;;;;;;5072562;28;21076;-59
2021/04/10 11:06:37;;;;;;;12.60;10.90;;;15.10;1.00;;;;;;5071901;28;20455;-59
2021/04/10 11:09:06;;;;;;;10.97;9.90;;;14.90;1.00;;;;;;5072024;28;20463;-58
2021/04/10 11:11:35;;;;;;;12.23;10.33;;;14.90;1.00;;;;;;5070641;28;20492;-58
2021/04/10 11:14:02;;;;;;;11.80;10.70;;;14.30;1.00;;;;;;5071190;28;20446;-60
2021/04/10 11:16:28;;;;;;;12.77;11.47;;;14.10;1.00;;;;;;5072295;28;20493;-59
2021/04/10 11:18:55;;;;;;;13.43;11.83;;;14.30;1.00;;;;;;5071387;28;20434;-60
2021/04/10 11:21:22;;;;;;;11.80;10.30;;;14.40;1.00;;;;;;5070927;28;20799;-59
2021/04/10 11:24:01;;;;;;;11.10;9.90;;;14.70;1.00;;;;;;5072094;28;20910;-58
2021/04/10 11:26:40;;;;;;;17.93;11.43;;;14.70;1.00;;;;;;5071902;28;20931;-59
2021/04/10 11:29:14;;;;;;;12.50;10.17;;;15.00;1.00;;;;;;5071844;28;20841;-58
2021/04/10 11:31:40;;;;;;;13.50;11.27;;;15.20;1.00;;;;;;5071366;28;20538;-58
2021/04/10 11:34:32;;;;;;;11.83;10.63;;;15.30;1.00;;;;;;5071000;28;20862;-58
2021/04/10 11:36:58;;;;;;;12.20;11.00;;;15.40;1.00;;;;;;5067071;28;20449;-60
2021/04/10 11:39:24;;;;;;;10.97;9.87;;;15.40;1.00;;;;;;5072178;28;20446;-60
2021/04/10 11:41:51;;;;;;;10.80;9.70;;;14.90;1.00;;;;;;5071760;28;20528;-60
2021/04/10 11:44:19;;;;;;;11.53;9.90;;;14.80;1.00;;;;;;5071517;28;20460;-59
2021/04/10 11:46:44;;;;;;;13.60;11.60;;;14.60;1.00;;;;;;5069753;28;20445;-59
2021/04/10 11:49:26;;;;;;;13.73;10.80;;;14.40;1.00;;;;;;5074518;28;20479;-60
2021/04/10 11:51:51;;;;;;;11.50;10.17;;;14.30;1.00;;;;;;5071440;28;20302;-60
2021/04/10 11:54:31;;;;;;;12.70;10.63;;;14.10;1.00;;;;;;5071614;28;20524;-60
2021/04/10 11:56:57;;;;;;;11.60;10.43;;;14.30;1.00;;;;;;5071062;28;20175;-59
2021/04/10 11:59:34;;;;;;;12.93;10.43;;;14.20;1.00;;;;;;5071552;28;20414;-61
2021/04/10 12:02:02;;;;;;;11.47;10.27;;;14.20;1.00;;;;;;5070943;28;20179;-60
2021/04/10 12:04:36;;;;;;;12.27;11.10;;;14.00;1.00;;;;;;5070122;28;20442;-59
2021/04/10 12:07:07;;;;;;;10.93;9.93;;;14.00;1.00;;;;;;5071414;28;20438;-61
2021/04/10 12:09:40;;;;;;;14.00;11.00;;;14.20;1.00;;;;;;5071774;28;20528;-58
2021/04/10 12:12:10;;;;;;;12.40;10.70;;;14.20;1.00;;;;;;5070886;28;20962;-60
2021/04/10 12:14:39;;;;;;;12.17;10.23;;;14.50;1.00;;;;;;5069768;28;20449;-61
2021/04/10 12:17:04;;;;;;;13.30;11.37;;;14.50;1.00;;;;;;5071054;28;20446;-59
2021/04/10 12:19:30;;;;;;;13.17;11.40;;;14.50;1.00;;;;;;5069885;28;20494;-59
2021/04/10 12:21:56;;;;;;;13.80;12.37;;;14.40;1.00;;;;;;5077881;28;20636;-59
2021/04/10 12:24:21;;;;;;;12.87;11.60;;;14.40;1.00;;;;;;5070489;28;20180;-60
2021/04/10 12:26:47;;;;;;;11.93;10.43;;;14.40;1.00;;;;;;5070850;28;20639;-59
2021/04/10 12:29:13;;;;;;;13.27;11.87;;;14.30;1.00;;;;;;5070790;28;20266;-60
2021/04/10 12:31:39;;;;;;;13.90;12.50;;;14.40;1.00;;;;;;5069920;28;20207;-61
2021/04/10 12:34:04;;;;;;;16.67;12.30;;;14.10;1.00;;;;;;5069236;28;20522;-60
2021/04/10 12:36:31;;;;;;;14.87;12.20;;;14.10;1.00;;;;;;5071053;28;20195;-60
2021/04/10 12:38:57;;;;;;;12.13;11.00;;;14.00;1.00;;;;;;5069858;28;20438;-59
2021/04/10 12:41:23;;;;;;;12.33;10.83;;;14.10;1.00;;;;;;5068568;28;20452;-60
2021/04/10 12:43:49;;;;;;;13.57;11.60;;;14.10;1.00;;;;;;5070778;28;20437;-60
2021/04/10 12:46:14;;;;;;;13.67;11.37;;;13.90;1.00;;;;;;5069031;28;20195;-58
2021/04/10 12:48:41;;;;;;;13.50;12.00;;;15.50;1.00;;;;;;5070546;28;20601;-60
2021/04/10 12:51:07;;;;;;;11.97;10.77;;;13.80;1.00;;;;;;5052421;28;20564;-59
2021/04/10 12:53:33;;;;;;;12.30;11.13;;;13.80;1.00;;;;;;5070460;28;20480;-59
2021/04/10 12:55:59;;;;;;;12.80;10.80;;;13.60;1.00;;;;;;5069160;28;20488;-59
2021/04/10 12:58:24;;;;;;;14.70;11.10;;;13.60;1.00;;;;;;5070247;28;20199;-58
2021/04/10 13:00:50;;;;;;;13.60;11.63;;;13.40;1.00;;;;;;5070628;28;20201;-59